首页
METAR-TAF:

METAR-TAF

机场 :

魁北克, 魁北克, 加拿大

魁北克让·勒萨热国际机场

纬度: 46-48N, 经度: 071-23W, 海拔: 70米

当前天气观测

该预报发布于1小时和9分钟前的23:00 UTC
风速3节,风向西南
温度 -11°C
湿度 85%
气压 1020 hPa
能見度: 16.1公里
少量云层高于2500英尺
多云层高于5700英尺
多云层高于15000英尺
阴天层高于19000英尺

METAR: CYQB 172300Z 23003KT 10SM FEW025 BKN057 BKN150 OVC190 M11/M13 A3012 RMK SC1SC4AC2AC1 SLP207

时间: 19:09 (00:09 UTC)

预报

该预报发布于31分钟前的23:38 UTC
预报有效从18日的 00点(UTC)到 18日的 24点(UTC)
风速6节,风向西转西南
能見度: 10公里
散云层高于1000英尺
多云层高于6000英尺
短暂存在
从 18日的 00点(UTC)到 18日的 05点(UTC)
能見度: 8.0公里
多云层高于1000英尺
小雪
从 18日的 0500点(UTC)
风速10节,风向西转西南
阴天层高于1000英尺
小雪
短暂存在
从 18日的 05点(UTC)到 18日的 11点(UTC)
能見度: 9.7公里
小雪
从 18日的 1100点(UTC)
风速10节,风向西转西南
能見度: 9.7公里
散云层高于800英尺
阴天层高于1500英尺
小雪
从 18日的 1600点(UTC)
风速12节,风向西转西南
能見度: 10公里
多云层高于2000英尺
成为
从 18日的 20点(UTC)到 18日的 22点(UTC)
风速7节,风向西转西南

TAF: CYQB 172338Z 1800/1824 24006KT P6SM SCT010 BKN060 TEMPO 1800/1805 5SM -SN BKN010 FM180500 24010KT 21/2SM -SN OVC010 TEMPO 1805/1811 6SM -SN FM181100 25010KT 6SM -SN SCT008 OVC015 FM181600 25012KT P6SM BKN020 BECMG 1820/1822 25007KT RMK NXT FCST BY 180600Z

超过4000个机场的气象观测和天气预报(METAR&TAF报告)。

可查询的气象台以黄色和红色小点在地图上表示。

将鼠标移到小点上方,可查看气象台名称。

然后点击查看天气观测和预报。

如需切换地图:点击带黑十字的绿色按钮放大地图;点击带横线的绿色按钮缩小地图;或者点击绿色箭头查看邻近地区的地图。


METAR-TAF: